createdAt,value
2022-07-31T00:00:45.299Z,101559.30
2022-07-31T00:01:48.208Z,101556.07
2022-07-31T00:02:51.679Z,101556.08
2022-07-31T00:03:54.942Z,101555.21
2022-07-31T00:04:57.895Z,101553.84
2022-07-31T00:06:00.876Z,101554.45
2022-07-31T00:07:04.625Z,101555.96
2022-07-31T00:08:07.861Z,101554.61
2022-07-31T00:09:51.633Z,101555.65
2022-07-31T00:10:34.161Z,101557.11
2022-07-31T00:11:37.136Z,101557.92
2022-07-31T00:12:40.066Z,101558.20
2022-07-31T00:13:57.097Z,101556.91
2022-07-31T00:15:02.060Z,101555.04
2022-07-31T00:16:05.095Z,101554.77
2022-07-31T00:17:08.084Z,101550.96
2022-07-31T00:18:11.779Z,101548.09
2022-07-31T00:19:14.812Z,101551.24
2022-07-31T00:20:18.225Z,101544.44
2022-07-31T00:21:21.218Z,101545.47
2022-07-31T00:22:24.239Z,101550.75
2022-07-31T00:23:27.145Z,101547.65
2022-07-31T00:24:30.367Z,101547.70
2022-07-31T00:25:33.531Z,101549.17
2022-07-31T00:26:36.480Z,101544.44
2022-07-31T00:27:40.201Z,101544.77
2022-07-31T00:28:43.124Z,101542.48
2022-07-31T00:29:46.034Z,101540.34
2022-07-31T00:30:49.210Z,101543.77
2022-07-31T00:31:52.152Z,101541.11
2022-07-31T00:32:55.183Z,101540.02
2022-07-31T00:33:58.236Z,101543.02
2022-07-31T00:35:01.681Z,101541.76
2022-07-31T00:36:04.982Z,101541.27
2022-07-31T00:37:10.832Z,101541.48
2022-07-31T00:38:29.079Z,101539.41
2022-07-31T00:39:32.711Z,101539.73
2022-07-31T00:40:35.723Z,101540.80
2022-07-31T00:41:43.116Z,101537.11
2022-07-31T00:42:46.211Z,101537.60
2022-07-31T00:43:49.249Z,101538.09
2022-07-31T00:44:52.774Z,101535.37
2022-07-31T00:45:59.126Z,101534.45
2022-07-31T00:47:02.912Z,101532.63
2022-07-31T00:48:07.382Z,101534.69
2022-07-31T00:49:10.857Z,101532.01
2022-07-31T00:50:13.890Z,101531.85
2022-07-31T00:51:18.191Z,101528.80
2022-07-31T00:52:21.253Z,101526.64
2022-07-31T00:53:24.233Z,101528.48
2022-07-31T00:54:27.221Z,101525.13
2022-07-31T00:55:30.264Z,101525.22
2022-07-31T00:56:53.174Z,101524.13
2022-07-31T00:57:56.312Z,101521.48
2022-07-31T00:58:59.517Z,101520.84
2022-07-31T01:00:02.411Z,101520.34
2022-07-31T01:01:05.447Z,101520.27
2022-07-31T01:02:08.438Z,101520.25
2022-07-31T01:03:11.501Z,101521.86
2022-07-31T01:04:16.427Z,101521.61
2022-07-31T01:05:19.423Z,101519.27
2022-07-31T01:06:22.519Z,101517.35
2022-07-31T01:07:26.004Z,101519.40
2022-07-31T01:08:29.100Z,101518.08
2022-07-31T01:09:32.191Z,101518.04
2022-07-31T01:10:53.753Z,101517.86
2022-07-31T01:12:02.410Z,101518.70
2022-07-31T01:13:08.438Z,101520.33
2022-07-31T01:14:12.221Z,101516.41
2022-07-31T01:15:16.344Z,101519.05
2022-07-31T01:16:19.538Z,101517.98
2022-07-31T01:17:23.449Z,101516.98
2022-07-31T01:18:27.510Z,101517.27
2022-07-31T01:19:39.723Z,101516.99
2022-07-31T01:20:49.762Z,101515.70
2022-07-31T01:22:33.097Z,101515.41
2022-07-31T01:23:51.074Z,101515.57
2022-07-31T01:25:26.898Z,101512.64
2022-07-31T01:26:43.754Z,101511.98
2022-07-31T01:27:56.290Z,101509.40
2022-07-31T01:29:15.293Z,101512.27
2022-07-31T01:30:18.661Z,101506.57
2022-07-31T01:32:49.675Z,101503.11
2022-07-31T01:33:57.575Z,101504.95
2022-07-31T01:35:03.692Z,101508.42
2022-07-31T01:36:09.415Z,101512.33
2022-07-31T01:37:21.427Z,101510.58
2022-07-31T01:38:27.263Z,101509.65
2022-07-31T01:39:33.752Z,101509.45
2022-07-31T01:40:48.261Z,101510.09
2022-07-31T01:41:53.360Z,101507.92
2022-07-31T01:43:01.881Z,101508.63
2022-07-31T01:44:05.735Z,101507.65
2022-07-31T01:45:10.895Z,101506.66
2022-07-31T01:46:15.954Z,101509.55
2022-07-31T01:47:20.579Z,101508.24
2022-07-31T01:48:23.849Z,101506.45
2022-07-31T01:49:28.247Z,101503.56
2022-07-31T01:50:43.730Z,101506.49
2022-07-31T01:51:48.098Z,101499.88
2022-07-31T01:52:51.755Z,101501.02
2022-07-31T01:53:55.874Z,101497.59
2022-07-31T01:54:59.769Z,101499.05
2022-07-31T01:56:04.471Z,101499.39
2022-07-31T01:57:14.319Z,101495.58
2022-07-31T01:58:26.734Z,101498.77
2022-07-31T01:59:37.260Z,101496.08
2022-07-31T02:00:54.858Z,101493.79
2022-07-31T02:02:01.395Z,101497.21
2022-07-31T02:03:09.621Z,101498.16
2022-07-31T02:04:14.404Z,101498.48
2022-07-31T02:05:18.530Z,101502.59
2022-07-31T02:06:23.341Z,101500.05
2022-07-31T02:07:27.405Z,101500.21
2022-07-31T02:08:32.093Z,101502.83
2022-07-31T02:09:36.112Z,101499.23
2022-07-31T02:10:39.833Z,101492.88
2022-07-31T02:11:53.525Z,101496.69
2022-07-31T02:13:06.943Z,101491.27
2022-07-31T02:14:10.646Z,101491.66
2022-07-31T02:15:14.797Z,101486.39
2022-07-31T02:16:20.276Z,101490.24
2022-07-31T02:17:26.072Z,101489.25
2022-07-31T02:18:51.138Z,101490.34
2022-07-31T02:20:00.873Z,101488.23
2022-07-31T02:21:04.300Z,101486.77
2022-07-31T02:22:07.537Z,101484.67
2022-07-31T02:23:12.018Z,101484.77
2022-07-31T02:24:15.418Z,101483.86
2022-07-31T02:25:18.333Z,101482.16
2022-07-31T02:26:21.934Z,101481.34
2022-07-31T02:27:53.999Z,101477.27
2022-07-31T02:28:51.575Z,101475.54
2022-07-31T02:29:55.605Z,101477.70
2022-07-31T02:30:59.075Z,101475.10
2022-07-31T02:32:03.432Z,101476.96
2022-07-31T02:33:09.150Z,101477.70
2022-07-31T02:34:13.676Z,101475.33
2022-07-31T02:35:17.345Z,101474.02
2022-07-31T02:36:21.382Z,101475.11
2022-07-31T02:37:25.516Z,101474.29
2022-07-31T02:38:29.908Z,101471.48
2022-07-31T02:39:34.450Z,101469.78
2022-07-31T02:40:37.986Z,101468.55
2022-07-31T02:41:44.872Z,101464.49
2022-07-31T02:42:49.076Z,101468.14
2022-07-31T02:43:52.313Z,101464.67
2022-07-31T02:44:57.133Z,101462.95
2022-07-31T02:46:03.521Z,101463.59
2022-07-31T02:47:07.494Z,101461.52
2022-07-31T02:48:10.911Z,101458.80
2022-07-31T02:49:16.778Z,101457.33
2022-07-31T02:50:20.609Z,101461.05
2022-07-31T02:51:24.462Z,101456.21
2022-07-31T02:52:28.928Z,101455.27
2022-07-31T02:53:32.337Z,101453.39
2022-07-31T02:54:39.519Z,101452.40
2022-07-31T02:55:44.589Z,101452.89
2022-07-31T02:56:47.842Z,101453.57
2022-07-31T02:57:51.380Z,101450.42
2022-07-31T02:58:55.937Z,101451.61
2022-07-31T03:00:14.683Z,101453.79
2022-07-31T03:01:18.408Z,101450.90
2022-07-31T03:02:21.476Z,101452.81
2022-07-31T03:03:24.328Z,101449.99
2022-07-31T03:04:27.314Z,101449.64
2022-07-31T03:05:31.372Z,101450.05
2022-07-31T03:06:34.457Z,101450.16
2022-07-31T03:07:37.533Z,101448.27
2022-07-31T03:08:40.534Z,101450.13
2022-07-31T03:09:43.770Z,101446.48
2022-07-31T03:11:05.066Z,101446.02
2022-07-31T03:12:08.068Z,101445.89
2022-07-31T03:13:12.113Z,101445.95
2022-07-31T03:14:15.365Z,101447.87
2022-07-31T03:15:19.806Z,101449.77
2022-07-31T03:16:23.778Z,101448.55
2022-07-31T03:17:38.209Z,101447.05
2022-07-31T03:18:45.699Z,101448.67
2022-07-31T03:19:49.472Z,101449.31
2022-07-31T03:20:53.081Z,101452.11
2022-07-31T03:21:56.412Z,101449.84
2022-07-31T03:23:00.969Z,101448.10
2022-07-31T03:24:04.679Z,101448.91
2022-07-31T03:25:08.730Z,101450.59
2022-07-31T03:26:11.944Z,101450.97
2022-07-31T03:27:15.084Z,101451.73
2022-07-31T03:28:19.398Z,101452.17
2022-07-31T03:29:41.117Z,101455.32
2022-07-31T03:30:55.271Z,101452.94
2022-07-31T03:32:01.193Z,101451.90
2022-07-31T03:33:04.543Z,101451.52
2022-07-31T03:34:08.535Z,101451.41
2022-07-31T03:35:11.878Z,101452.12
2022-07-31T03:36:15.671Z,101450.59
2022-07-31T03:37:18.675Z,101455.38
2022-07-31T03:38:41.157Z,101453.52
2022-07-31T03:39:45.366Z,101455.64
2022-07-31T03:40:48.937Z,101456.30
2022-07-31T03:41:52.288Z,101458.73
2022-07-31T03:42:56.439Z,101453.36
2022-07-31T03:43:59.542Z,101450.73
2022-07-31T03:45:03.795Z,101455.09
2022-07-31T03:46:07.423Z,101453.29
2022-07-31T03:47:10.547Z,101452.10
2022-07-31T03:48:14.036Z,101452.80
2022-07-31T03:49:17.577Z,101453.36
2022-07-31T03:50:20.872Z,101452.11
2022-07-31T03:51:24.154Z,101451.52
2022-07-31T03:52:27.699Z,101451.25
2022-07-31T03:53:31.476Z,101451.30
2022-07-31T03:54:34.607Z,101448.65
2022-07-31T03:55:57.630Z,101447.93
2022-07-31T03:57:00.925Z,101448.05
2022-07-31T03:58:06.426Z,101446.69
2022-07-31T03:59:11.378Z,101443.59
2022-07-31T04:00:17.745Z,101443.86
2022-07-31T04:01:21.781Z,101445.29
2022-07-31T04:02:26.156Z,101444.52
2022-07-31T04:03:38.297Z,101439.80
2022-07-31T04:05:00.389Z,101442.80
2022-07-31T04:06:03.401Z,101441.40
2022-07-31T04:07:06.405Z,101443.16
2022-07-31T04:08:09.990Z,101445.52
2022-07-31T04:09:15.582Z,101446.08
2022-07-31T04:10:23.077Z,101444.74
2022-07-31T04:11:25.946Z,101443.14
2022-07-31T04:12:28.945Z,101442.60
2022-07-31T04:13:32.037Z,101442.51
2022-07-31T04:14:35.105Z,101443.40
2022-07-31T04:15:38.221Z,101442.29
2022-07-31T04:16:41.255Z,101442.01
2022-07-31T04:17:44.405Z,101442.98
2022-07-31T04:18:50.642Z,101443.90
2022-07-31T04:19:54.589Z,101443.44
2022-07-31T04:20:57.598Z,101442.59
2022-07-31T04:22:01.214Z,101444.84
2022-07-31T04:23:04.762Z,101443.27
2022-07-31T04:24:42.384Z,101441.40
2022-07-31T04:26:03.738Z,101439.82
2022-07-31T04:27:16.493Z,101445.33
2022-07-31T04:28:20.063Z,101447.05
2022-07-31T04:29:23.230Z,101444.72
2022-07-31T04:30:26.322Z,101445.27
2022-07-31T04:31:30.972Z,101443.91
2022-07-31T04:32:34.803Z,101443.44
2022-07-31T04:33:48.881Z,101444.21
2022-07-31T04:34:54.614Z,101443.73
2022-07-31T04:35:57.762Z,101439.50
2022-07-31T04:37:00.697Z,101441.41
2022-07-31T04:38:03.613Z,101444.45
2022-07-31T04:39:10.570Z,101443.71
2022-07-31T04:40:14.124Z,101438.79
2022-07-31T04:41:17.937Z,101441.69
2022-07-31T04:42:21.758Z,101442.63
2022-07-31T04:43:24.721Z,101439.76
2022-07-31T04:44:27.549Z,101439.77
2022-07-31T04:45:32.307Z,101442.61
2022-07-31T04:46:35.462Z,101443.70
2022-07-31T04:47:38.723Z,101441.80
2022-07-31T04:48:41.908Z,101441.70
2022-07-31T04:49:48.637Z,101440.34
2022-07-31T04:51:02.796Z,101443.67
2022-07-31T04:52:07.196Z,101442.65
2022-07-31T04:53:10.881Z,101441.45
2022-07-31T04:54:16.445Z,101440.85
2022-07-31T04:55:21.072Z,101442.66
2022-07-31T04:56:37.502Z,101444.58
2022-07-31T04:57:40.672Z,101442.29
2022-07-31T04:58:43.633Z,101443.27
2022-07-31T04:59:57.870Z,101445.90
2022-07-31T05:01:03.205Z,101443.73
2022-07-31T05:02:07.325Z,101446.62
2022-07-31T05:03:10.879Z,101444.44
2022-07-31T05:04:16.313Z,101445.05
2022-07-31T05:05:19.276Z,101444.35
2022-07-31T05:06:23.049Z,101446.70
2022-07-31T05:07:26.678Z,101448.52
2022-07-31T05:08:32.363Z,101445.80
2022-07-31T05:09:36.455Z,101444.61
2022-07-31T05:11:00.346Z,101446.36
2022-07-31T05:12:04.802Z,101442.50
2022-07-31T05:13:08.550Z,101444.46
2022-07-31T05:14:12.533Z,101445.68
2022-07-31T05:15:17.244Z,101446.51
2022-07-31T05:16:21.138Z,101448.69
2022-07-31T05:17:24.019Z,101447.08
2022-07-31T05:18:47.770Z,101444.86
2022-07-31T05:20:16.492Z,101446.82
2022-07-31T05:21:51.364Z,101444.35
2022-07-31T05:23:08.665Z,101444.30
2022-07-31T05:24:32.748Z,101449.77
2022-07-31T05:25:46.269Z,101449.51
2022-07-31T05:26:50.165Z,101448.00
2022-07-31T05:27:53.042Z,101446.80
2022-07-31T05:28:58.736Z,101448.00
2022-07-31T05:30:02.690Z,101449.73
2022-07-31T05:31:07.486Z,101446.09
2022-07-31T05:32:10.687Z,101445.19
2022-07-31T05:33:13.974Z,101446.06
2022-07-31T05:34:19.628Z,101445.54
2022-07-31T05:35:22.485Z,101445.83
2022-07-31T05:36:27.110Z,101447.23
2022-07-31T05:37:30.079Z,101447.52
2022-07-31T05:38:35.433Z,101446.59
2022-07-31T05:39:50.611Z,101447.77
2022-07-31T05:41:12.280Z,101445.34
2022-07-31T05:42:38.767Z,101447.75
2022-07-31T05:44:05.635Z,101447.81
2022-07-31T05:45:21.572Z,101446.66
2022-07-31T05:46:24.578Z,101444.73
2022-07-31T05:47:40.457Z,101447.85
2022-07-31T05:48:45.592Z,101448.63
2022-07-31T05:49:48.994Z,101449.46
2022-07-31T05:50:52.703Z,101451.85
2022-07-31T05:51:55.663Z,101447.35
2022-07-31T05:52:58.605Z,101452.65
2022-07-31T05:54:21.211Z,101450.09
2022-07-31T05:55:43.267Z,101448.30
2022-07-31T05:57:32.988Z,101448.48
2022-07-31T05:58:38.253Z,101448.86
2022-07-31T05:59:41.289Z,101448.50
2022-07-31T06:00:45.201Z,101448.86
2022-07-31T06:01:48.285Z,101449.11
2022-07-31T06:02:51.541Z,101451.58
2022-07-31T06:04:12.873Z,101445.91
2022-07-31T06:05:21.267Z,101444.57
2022-07-31T06:06:24.280Z,101446.33
2022-07-31T06:07:28.430Z,101448.84
2022-07-31T06:08:31.945Z,101447.86
2022-07-31T06:09:35.065Z,101447.17
2022-07-31T06:10:38.404Z,101448.08
2022-07-31T06:11:41.924Z,101446.66
2022-07-31T06:12:44.910Z,101446.29
2022-07-31T06:13:47.963Z,101448.98
2022-07-31T06:14:56.237Z,101447.73
2022-07-31T06:16:15.999Z,101449.98
2022-07-31T06:17:19.056Z,101450.46
2022-07-31T06:18:22.482Z,101443.90
2022-07-31T06:19:26.211Z,101449.65
2022-07-31T06:20:29.606Z,101444.49
2022-07-31T06:21:32.784Z,101445.44
2022-07-31T06:22:36.047Z,101443.58
2022-07-31T06:23:39.334Z,101445.13
2022-07-31T06:24:51.641Z,101446.27
2022-07-31T06:25:54.987Z,101448.83
2022-07-31T06:27:01.106Z,101444.59
2022-07-31T06:28:10.228Z,101447.04
2022-07-31T06:29:14.073Z,101447.59
2022-07-31T06:30:17.302Z,101447.06
2022-07-31T06:31:21.175Z,101445.10
2022-07-31T06:32:24.364Z,101446.79
2022-07-31T06:33:37.467Z,101450.27
2022-07-31T06:34:41.617Z,101448.50
2022-07-31T06:35:44.948Z,101451.40
2022-07-31T06:37:05.039Z,101451.06
2022-07-31T06:38:08.919Z,101455.21
2022-07-31T06:39:54.456Z,101451.36
2022-07-31T06:41:11.989Z,101456.94
2022-07-31T06:42:26.021Z,101454.04
2022-07-31T06:43:41.069Z,101454.89
2022-07-31T06:45:02.614Z,101454.02
2022-07-31T06:46:24.338Z,101452.95
2022-07-31T06:47:46.167Z,101452.90
2022-07-31T06:49:08.889Z,101452.86
2022-07-31T06:50:12.243Z,101451.13
2022-07-31T06:51:32.360Z,101450.80
2022-07-31T06:52:35.674Z,101452.55
2022-07-31T06:53:38.924Z,101453.14
2022-07-31T06:54:43.056Z,101451.95
2022-07-31T06:55:46.181Z,101453.48
2022-07-31T06:56:49.371Z,101453.05
2022-07-31T06:57:52.370Z,101453.81
2022-07-31T06:58:55.765Z,101449.35
2022-07-31T06:59:58.939Z,101452.20
2022-07-31T07:01:01.988Z,101451.92
2022-07-31T07:02:05.389Z,101449.95
2022-07-31T07:03:09.839Z,101448.98
2022-07-31T07:04:12.797Z,101450.67
2022-07-31T07:05:15.897Z,101451.13
2022-07-31T07:06:19.385Z,101448.99
2022-07-31T07:07:22.540Z,101449.56
2022-07-31T07:08:26.338Z,101446.29
2022-07-31T07:09:29.912Z,101445.59
2022-07-31T07:10:33.087Z,101444.38
2022-07-31T07:11:36.127Z,101440.23
2022-07-31T07:12:39.474Z,101440.95
2022-07-31T07:13:45.912Z,101443.52
2022-07-31T07:14:50.711Z,101441.38
2022-07-31T07:15:53.893Z,101442.96
2022-07-31T07:17:02.022Z,101442.36
2022-07-31T07:18:05.157Z,101442.80
2022-07-31T07:19:14.718Z,101441.39
2022-07-31T07:20:18.668Z,101443.98
2022-07-31T07:21:22.088Z,101446.19
2022-07-31T07:22:31.806Z,101444.66
2022-07-31T07:23:36.816Z,101440.95
2022-07-31T07:24:51.924Z,101441.38
2022-07-31T07:25:58.856Z,101439.79
2022-07-31T07:27:02.361Z,101440.63
2022-07-31T07:28:06.835Z,101440.18
2022-07-31T07:29:10.678Z,101440.30
2022-07-31T07:30:13.707Z,101438.60
2022-07-31T07:31:16.692Z,101438.38
2022-07-31T07:32:19.933Z,101438.58
2022-07-31T07:33:41.398Z,101440.50
2022-07-31T07:34:48.402Z,101438.36
2022-07-31T07:36:23.898Z,101440.27
2022-07-31T07:37:39.301Z,101438.58
2022-07-31T07:38:43.250Z,101439.33
2022-07-31T07:39:47.162Z,101437.42
2022-07-31T07:40:50.587Z,101432.34
2022-07-31T07:41:53.524Z,101432.06
2022-07-31T07:43:01.227Z,101431.52
2022-07-31T07:44:06.790Z,101433.71
2022-07-31T07:45:10.262Z,101437.64
2022-07-31T07:46:13.274Z,101432.57
2022-07-31T07:47:18.899Z,101432.51
2022-07-31T07:48:22.020Z,101430.65
2022-07-31T07:49:49.530Z,101433.01
2022-07-31T07:51:10.988Z,101431.70
2022-07-31T07:52:28.731Z,101426.39
2022-07-31T07:53:37.956Z,101426.45
2022-07-31T07:54:59.679Z,101422.72
2022-07-31T07:56:21.037Z,101426.71
2022-07-31T07:57:44.273Z,101424.27
2022-07-31T07:59:05.908Z,101424.59
2022-07-31T08:00:44.067Z,101426.39
2022-07-31T08:01:47.491Z,101426.33
2022-07-31T08:03:04.202Z,101426.77
2022-07-31T08:04:18.126Z,101428.33
2022-07-31T08:05:22.520Z,101427.73
2022-07-31T08:06:25.500Z,101427.58
2022-07-31T08:07:42.123Z,101427.95
2022-07-31T08:09:08.818Z,101430.83
2022-07-31T08:10:30.194Z,101429.93
2022-07-31T08:11:42.603Z,101429.23
2022-07-31T08:12:54.890Z,101427.39
2022-07-31T08:14:30.185Z,101434.06
2022-07-31T08:15:59.409Z,101435.83
2022-07-31T08:17:12.143Z,101432.75
2022-07-31T08:18:17.508Z,101431.67
2022-07-31T08:19:20.593Z,101435.06
2022-07-31T08:20:26.260Z,101433.24
2022-07-31T08:21:29.436Z,101434.50
2022-07-31T08:22:32.510Z,101434.33
2022-07-31T08:23:35.866Z,101433.02
2022-07-31T08:24:39.233Z,101435.54
2022-07-31T08:25:42.755Z,101434.98
2022-07-31T08:27:04.473Z,101436.58
2022-07-31T08:28:19.513Z,101435.42
2022-07-31T08:29:28.761Z,101434.10
2022-07-31T08:30:43.831Z,101433.74
2022-07-31T08:31:49.372Z,101430.54
2022-07-31T08:33:25.027Z,101435.58
2022-07-31T08:34:32.235Z,101435.03
2022-07-31T08:35:38.346Z,101436.28
2022-07-31T08:36:42.102Z,101435.25
2022-07-31T08:37:52.120Z,101432.93
2022-07-31T08:39:06.114Z,101430.85
2022-07-31T08:40:25.689Z,101433.88
2022-07-31T08:41:28.730Z,101433.71
2022-07-31T08:42:32.534Z,101434.86
2022-07-31T08:44:03.288Z,101438.20
2022-07-31T08:44:59.055Z,101438.06
2022-07-31T08:46:05.823Z,101437.90
2022-07-31T08:47:15.043Z,101437.24
2022-07-31T08:48:21.519Z,101435.91
2022-07-31T08:49:26.346Z,101440.20
2022-07-31T08:50:30.909Z,101440.35
2022-07-31T08:51:51.110Z,101442.07
2022-07-31T08:53:33.153Z,101441.85
2022-07-31T08:54:43.461Z,101439.28
2022-07-31T08:55:57.136Z,101442.30
2022-07-31T08:57:02.852Z,101442.61
2022-07-31T08:58:06.421Z,101441.60
2022-07-31T08:59:09.799Z,101446.71
2022-07-31T09:00:17.577Z,101446.23
2022-07-31T09:01:20.665Z,101445.49
2022-07-31T09:02:23.638Z,101447.44
2022-07-31T09:03:56.762Z,101448.41
2022-07-31T09:04:59.786Z,101445.79
2022-07-31T09:06:03.553Z,101447.36
2022-07-31T09:07:10.414Z,101448.84
2022-07-31T09:08:15.000Z,101445.50
2022-07-31T09:09:20.082Z,101441.55
2022-07-31T09:10:24.962Z,101446.58
2022-07-31T09:11:28.836Z,101443.02
2022-07-31T09:13:12.174Z,101447.64
2022-07-31T09:14:24.393Z,101446.44
2022-07-31T09:15:31.002Z,101450.77
2022-07-31T09:16:46.838Z,101451.65
2022-07-31T09:17:51.944Z,101451.17
2022-07-31T09:19:01.436Z,101451.02
2022-07-31T09:20:05.826Z,101449.46
2022-07-31T09:21:10.776Z,101454.02
2022-07-31T09:22:27.125Z,101450.73
2022-07-31T09:23:32.222Z,101450.59
2022-07-31T09:24:36.933Z,101450.45
2022-07-31T09:25:52.302Z,101449.28
2022-07-31T09:27:05.537Z,101447.91
2022-07-31T09:28:09.315Z,101449.44
2022-07-31T09:29:13.038Z,101448.63
2022-07-31T09:30:16.875Z,101447.23
2022-07-31T09:31:32.440Z,101449.17
2022-07-31T09:32:57.420Z,101451.35
2022-07-31T09:34:27.029Z,101450.40
2022-07-31T09:35:52.488Z,101449.30
2022-07-31T09:36:55.593Z,101451.19
2022-07-31T09:38:41.287Z,101449.70
2022-07-31T09:40:02.915Z,101447.79
2022-07-31T09:41:58.059Z,101446.64
2022-07-31T09:43:19.380Z,101445.85
2022-07-31T09:44:25.292Z,101448.76
2022-07-31T09:45:32.001Z,101447.59
2022-07-31T09:46:41.094Z,101448.66
2022-07-31T09:47:45.106Z,101448.06
2022-07-31T09:48:59.942Z,101450.25
2022-07-31T09:50:04.991Z,101451.18
2022-07-31T09:51:09.016Z,101448.63
2022-07-31T09:52:19.678Z,101447.90
2022-07-31T09:53:22.782Z,101449.25
2022-07-31T09:54:29.914Z,101446.34
2022-07-31T09:55:51.663Z,101450.41
2022-07-31T09:56:56.057Z,101439.66
2022-07-31T09:58:00.284Z,101445.70
2022-07-31T09:59:12.111Z,101443.09
2022-07-31T10:00:17.408Z,101451.30
2022-07-31T10:01:21.179Z,101443.59
2022-07-31T10:02:26.191Z,101444.77
2022-07-31T10:03:30.842Z,101444.53
2022-07-31T10:04:37.411Z,101438.10
2022-07-31T10:05:43.716Z,101445.31
2022-07-31T10:06:48.993Z,101444.27
2022-07-31T10:07:53.794Z,101443.77
2022-07-31T10:09:05.023Z,101444.50
2022-07-31T10:10:33.815Z,101439.57
2022-07-31T10:12:01.001Z,101438.26
2022-07-31T10:13:08.275Z,101438.33
2022-07-31T10:14:17.167Z,101435.45
2022-07-31T10:15:20.924Z,101437.31
2022-07-31T10:16:45.139Z,101434.77
2022-07-31T10:18:35.623Z,101440.02
2022-07-31T10:20:09.490Z,101436.95
2022-07-31T10:21:38.141Z,101433.31
2022-07-31T10:22:49.791Z,101437.39
2022-07-31T10:24:04.217Z,101434.16
2022-07-31T10:25:13.098Z,101433.66
2022-07-31T10:26:17.717Z,101436.18
2022-07-31T10:27:26.343Z,101431.89
2022-07-31T10:28:38.797Z,101437.02
2022-07-31T10:29:49.435Z,101432.40
2022-07-31T10:30:52.741Z,101435.15
2022-07-31T10:32:01.034Z,101433.87
2022-07-31T10:33:22.162Z,101431.13
2022-07-31T10:34:49.567Z,101429.86
2022-07-31T10:36:21.555Z,101429.83
2022-07-31T10:38:15.854Z,101428.39
2022-07-31T10:39:31.882Z,101430.70
2022-07-31T10:41:10.640Z,101430.15
2022-07-31T10:42:35.927Z,101434.83
2022-07-31T10:43:48.221Z,101433.11
2022-07-31T10:45:10.373Z,101434.22
2022-07-31T10:46:31.916Z,101434.06
2022-07-31T10:47:57.108Z,101430.39
2022-07-31T10:49:48.874Z,101429.89
2022-07-31T10:51:10.107Z,101427.52
2022-07-31T10:52:34.836Z,101426.61
2022-07-31T10:54:11.562Z,101426.88
2022-07-31T10:55:43.350Z,101425.07
2022-07-31T10:57:03.307Z,101426.73
2022-07-31T10:58:19.905Z,101423.26
2022-07-31T10:59:32.036Z,101425.00
2022-07-31T11:01:09.658Z,101421.40
2022-07-31T11:02:33.271Z,101422.27
2022-07-31T11:03:49.812Z,101420.86
2022-07-31T11:05:08.195Z,101422.95
2022-07-31T11:06:40.391Z,101414.70
2022-07-31T11:08:12.310Z,101417.44
2022-07-31T11:09:27.750Z,101413.02
2022-07-31T11:10:49.364Z,101414.75
2022-07-31T11:12:18.875Z,101411.97
2022-07-31T11:13:46.788Z,101412.98
2022-07-31T11:14:59.398Z,101414.73
2022-07-31T11:16:30.541Z,101416.04
2022-07-31T11:18:22.235Z,101418.48
2022-07-31T11:19:20.534Z,101419.21
2022-07-31T11:20:28.417Z,101424.42
2022-07-31T11:21:39.492Z,101427.56
2022-07-31T11:22:43.135Z,101431.50
2022-07-31T11:23:57.592Z,101425.08
2022-07-31T11:25:06.285Z,101426.55
2022-07-31T11:26:10.207Z,101430.46
2022-07-31T11:27:13.542Z,101426.13
2022-07-31T11:28:23.677Z,101424.63
2022-07-31T11:29:59.210Z,101422.01
2022-07-31T11:30:52.242Z,101420.53
2022-07-31T11:31:55.498Z,101421.40
2022-07-31T11:32:58.608Z,101420.67
2022-07-31T11:34:04.116Z,101419.91
2022-07-31T11:35:08.959Z,101420.72
2022-07-31T11:36:21.885Z,101423.64
2022-07-31T11:37:30.664Z,101422.91
2022-07-31T11:38:52.204Z,101422.11
2022-07-31T11:40:09.812Z,101424.94
2022-07-31T11:41:13.643Z,101422.71
2022-07-31T11:42:18.983Z,101426.77
2022-07-31T11:43:26.331Z,101420.52
2022-07-31T11:44:29.868Z,101422.47
2022-07-31T11:45:35.611Z,101420.23
2022-07-31T11:46:38.576Z,101416.11
2022-07-31T11:48:10.975Z,101418.83
2022-07-31T11:49:05.367Z,101418.02
2022-07-31T11:50:10.685Z,101419.72
2022-07-31T11:51:18.458Z,101416.21
2022-07-31T11:52:30.850Z,101415.38
2022-07-31T11:53:41.361Z,101413.50
2022-07-31T11:54:44.288Z,101414.98
2022-07-31T11:55:48.665Z,101417.55
2022-07-31T11:56:54.396Z,101417.17
2022-07-31T11:57:57.784Z,101417.55
2022-07-31T11:59:00.767Z,101420.56
2022-07-31T12:00:26.471Z,101412.65
2022-07-31T12:01:30.751Z,101423.29
2022-07-31T12:02:33.905Z,101417.09
2022-07-31T12:03:38.694Z,101420.67
2022-07-31T12:04:41.691Z,101417.11
2022-07-31T12:05:45.708Z,101417.26
2022-07-31T12:06:54.447Z,101417.71
2022-07-31T12:07:57.494Z,101417.01
2022-07-31T12:09:00.488Z,101415.86
2022-07-31T12:10:04.389Z,101415.47
2022-07-31T12:11:12.849Z,101415.41
2022-07-31T12:12:19.028Z,101414.36
2022-07-31T12:13:22.620Z,101410.34
2022-07-31T12:14:35.884Z,101409.46
2022-07-31T12:15:39.157Z,101410.59
2022-07-31T12:16:42.400Z,101410.70
2022-07-31T12:17:46.406Z,101412.61
2022-07-31T12:18:50.607Z,101414.19
2022-07-31T12:19:57.750Z,101411.84
2022-07-31T12:21:04.829Z,101413.63
2022-07-31T12:22:18.691Z,101416.41
2022-07-31T12:23:38.577Z,101411.26
2022-07-31T12:24:44.494Z,101410.62
2022-07-31T12:25:47.436Z,101411.83
2022-07-31T12:26:51.515Z,101408.86
2022-07-31T12:27:55.468Z,101413.23
2022-07-31T12:29:04.431Z,101411.58
2022-07-31T12:30:17.570Z,101411.65
2022-07-31T12:31:20.479Z,101415.12
2022-07-31T12:32:24.505Z,101413.67
2022-07-31T12:33:28.684Z,101413.54
2022-07-31T12:34:38.909Z,101412.59
2022-07-31T12:35:56.074Z,101413.70
2022-07-31T12:37:06.137Z,101409.55
2022-07-31T12:38:30.028Z,101410.48
2022-07-31T12:39:50.796Z,101412.52
2022-07-31T12:41:04.567Z,101412.61
2022-07-31T12:42:07.735Z,101409.55
2022-07-31T12:43:10.702Z,101409.27
2022-07-31T12:44:14.651Z,101411.67
2022-07-31T12:45:28.527Z,101414.08
2022-07-31T12:46:37.972Z,101411.41
2022-07-31T12:47:40.962Z,101411.27
2022-07-31T12:48:46.142Z,101410.20
2022-07-31T12:49:49.514Z,101413.98
2022-07-31T12:50:52.631Z,101415.50
2022-07-31T12:51:55.577Z,101414.20
2022-07-31T12:53:00.434Z,101412.86
2022-07-31T12:54:05.284Z,101413.91
2022-07-31T12:55:08.487Z,101418.94
2022-07-31T12:56:12.277Z,101418.08
2022-07-31T12:57:15.196Z,101419.55
2022-07-31T12:58:18.290Z,101418.41
2022-07-31T12:59:21.437Z,101423.02
2022-07-31T13:00:25.975Z,101419.03
2022-07-31T13:01:29.399Z,101417.93
2022-07-31T13:02:32.312Z,101418.50
2022-07-31T13:03:46.106Z,101415.48
2022-07-31T13:04:49.497Z,101415.32
2022-07-31T13:05:52.448Z,101418.66
2022-07-31T13:06:56.041Z,101414.55
2022-07-31T13:07:59.018Z,101415.36
2022-07-31T13:09:02.961Z,101415.48